createdAt,value
2023-02-23T00:01:16.053Z,100486.81
2023-02-23T00:06:19.297Z,100492.88
2023-02-23T00:11:21.306Z,100492.00
2023-02-23T00:16:24.033Z,100493.69
2023-02-23T00:21:29.853Z,100490.16
2023-02-23T00:26:33.827Z,100488.34
2023-02-23T00:31:35.597Z,100479.50
2023-02-23T00:36:38.873Z,100488.16
2023-02-23T00:41:40.593Z,100486.22
2023-02-23T00:46:43.233Z,100480.03
2023-02-23T00:51:46.914Z,100488.66
2023-02-23T00:56:48.644Z,100488.69
2023-02-23T01:01:51.153Z,100490.50
2023-02-23T01:06:57.339Z,100493.97
2023-02-23T01:12:02.316Z,100498.41
2023-02-23T01:17:04.084Z,100492.31
2023-02-23T01:22:07.068Z,100491.44
2023-02-23T01:27:08.733Z,100485.34
2023-02-23T01:32:10.484Z,100485.28
2023-02-23T01:37:13.579Z,100482.69
2023-02-23T01:42:15.290Z,100489.69
2023-02-23T01:47:20.302Z,100490.56
2023-02-23T01:52:23.366Z,100496.56
2023-02-23T01:57:25.269Z,100486.03
2023-02-23T02:02:33.717Z,100485.03
2023-02-23T02:07:36.970Z,100493.56
2023-02-23T02:12:39.153Z,100484.84
2023-02-23T02:17:42.427Z,100487.38
2023-02-23T02:22:59.038Z,100490.00
2023-02-23T02:28:24.253Z,100478.78
2023-02-23T02:33:50.820Z,100475.34
2023-02-23T02:38:55.986Z,100478.66
2023-02-23T02:43:58.775Z,100477.69
2023-02-23T02:49:02.532Z,100476.88
2023-02-23T02:54:10.544Z,100475.16
2023-02-23T02:59:32.091Z,100476.84
2023-02-23T03:04:52.735Z,100475.97
2023-02-23T03:10:16.851Z,100483.16
2023-02-23T03:15:47.743Z,100479.66
2023-02-23T03:21:10.043Z,100471.22
2023-02-23T03:26:33.238Z,100476.41
2023-02-23T03:31:57.217Z,100479.91
2023-02-23T03:37:20.048Z,100476.50
2023-02-23T03:42:45.368Z,100478.19
2023-02-23T03:48:05.639Z,100477.38
2023-02-23T03:53:25.968Z,100472.97
2023-02-23T03:58:49.945Z,100473.84
2023-02-23T04:04:10.148Z,100482.78
2023-02-23T04:09:30.582Z,100480.25
2023-02-23T04:14:36.338Z,100475.97
2023-02-23T04:19:38.069Z,100484.66
2023-02-23T04:24:39.998Z,100482.91
2023-02-23T04:29:43.467Z,100488.03
2023-02-23T04:34:45.222Z,100477.50
2023-02-23T04:39:49.842Z,100483.63
2023-02-23T04:44:52.825Z,100487.09
2023-02-23T04:49:54.451Z,100491.56
2023-02-23T04:54:56.074Z,100492.38
2023-02-23T04:59:59.099Z,100488.03
2023-02-23T05:05:00.814Z,100486.38
2023-02-23T05:10:02.637Z,100479.44
2023-02-23T05:15:07.174Z,100501.97
2023-02-23T05:20:10.206Z,100494.97
2023-02-23T05:25:11.865Z,100495.03
2023-02-23T05:30:15.451Z,100495.91
2023-02-23T05:35:17.164Z,100514.19
2023-02-23T05:40:19.069Z,100502.06
2023-02-23T05:45:22.141Z,100500.38
2023-02-23T05:50:23.805Z,100493.44
2023-02-23T05:55:25.670Z,100499.59
2023-02-23T06:00:28.685Z,100502.25
2023-02-23T06:05:30.577Z,100513.53
2023-02-23T06:10:32.247Z,100510.09
2023-02-23T06:15:35.280Z,100520.59
2023-02-23T06:20:39.462Z,100514.44
2023-02-23T06:25:42.207Z,100519.66
2023-02-23T06:30:46.636Z,100523.06
2023-02-23T06:35:48.301Z,100536.09
2023-02-23T06:40:49.965Z,100529.13
2023-02-23T06:45:53.043Z,100544.75
2023-02-23T06:50:54.808Z,100543.16
2023-02-23T06:55:56.620Z,100548.41
2023-02-23T07:00:59.648Z,100549.34
2023-02-23T07:06:01.327Z,100556.38
2023-02-23T07:11:07.171Z,100560.75
2023-02-23T07:16:10.988Z,100562.59
2023-02-23T07:21:12.646Z,100566.16
2023-02-23T07:26:15.807Z,100575.78
2023-02-23T07:31:19.690Z,100583.56
2023-02-23T07:36:21.719Z,100588.00
2023-02-23T07:41:23.426Z,100569.81
2023-02-23T07:46:26.781Z,100574.25
2023-02-23T07:51:28.463Z,100577.78
2023-02-23T07:56:30.192Z,100580.41
2023-02-23T08:01:33.260Z,100581.25
2023-02-23T08:06:34.948Z,100582.16
2023-02-23T08:11:36.670Z,100585.69
2023-02-23T08:16:39.732Z,100581.34
2023-02-23T08:21:43.240Z,100581.41
2023-02-23T08:26:44.894Z,100597.09
2023-02-23T08:31:48.078Z,100594.56
2023-02-23T08:36:50.760Z,100597.94
2023-02-23T08:41:55.513Z,100601.47
2023-02-23T08:46:58.757Z,100612.81
2023-02-23T08:52:00.466Z,100606.66
2023-02-23T08:57:02.138Z,100618.03
2023-02-23T09:02:05.412Z,100616.38
2023-02-23T09:07:07.264Z,100622.44
2023-02-23T09:12:08.975Z,100618.97
2023-02-23T09:17:12.800Z,100624.22
2023-02-23T09:22:14.445Z,100626.81
2023-02-23T09:27:16.180Z,100637.28
2023-02-23T09:32:19.247Z,100629.41
2023-02-23T09:37:21.009Z,100631.19
2023-02-23T09:42:28.441Z,100628.50
2023-02-23T09:47:40.394Z,100628.56
2023-02-23T09:52:44.818Z,100632.97
2023-02-23T09:57:47.687Z,100627.75
2023-02-23T10:03:10.454Z,100637.34
2023-02-23T10:08:19.116Z,100639.06
2023-02-23T10:13:24.328Z,100639.94
2023-02-23T10:18:45.781Z,100658.22
2023-02-23T10:23:49.549Z,100652.13
2023-02-23T10:28:51.313Z,100651.25
2023-02-23T10:33:55.288Z,100653.88
2023-02-23T10:38:56.956Z,100651.31
2023-02-23T10:44:07.909Z,100653.06
2023-02-23T10:49:24.661Z,100656.53
2023-02-23T10:54:45.578Z,100653.06
2023-02-23T11:00:27.600Z,100658.34
2023-02-23T11:05:36.859Z,100656.59
2023-02-23T11:10:38.885Z,100650.50
2023-02-23T11:15:50.621Z,100644.41
2023-02-23T11:20:54.616Z,100637.47
2023-02-23T11:26:00.037Z,100643.53
2023-02-23T11:31:03.364Z,100639.19
2023-02-23T11:36:18.028Z,100633.09
2023-02-23T11:41:21.841Z,100626.16
2023-02-23T11:46:24.052Z,100620.09
2023-02-23T11:51:28.990Z,100618.34
2023-02-23T11:56:31.857Z,100618.38
2023-02-23T12:01:45.193Z,100620.97
2023-02-23T12:06:48.255Z,100615.78
2023-02-23T12:11:53.034Z,100606.22
2023-02-23T12:16:56.607Z,100600.09
2023-02-23T12:22:02.445Z,100607.09
2023-02-23T12:27:06.322Z,100601.88
2023-02-23T12:32:10.407Z,100601.84
2023-02-23T12:37:20.016Z,100594.00
2023-02-23T12:42:23.851Z,100591.38
2023-02-23T12:47:29.502Z,100593.09
2023-02-23T12:52:33.612Z,100599.19
2023-02-23T12:57:38.682Z,100591.34
2023-02-23T13:02:41.296Z,100582.63
2023-02-23T13:07:48.304Z,100587.00
2023-02-23T13:12:54.947Z,100588.75
2023-02-23T13:17:59.449Z,100582.66
2023-02-23T13:23:09.444Z,100587.88
2023-02-23T13:28:15.792Z,100587.88
2023-02-23T13:33:32.192Z,100586.09
2023-02-23T13:38:47.773Z,100591.34
2023-02-23T13:43:52.195Z,100584.31
2023-02-23T13:48:59.267Z,100583.47
2023-02-23T13:54:06.613Z,100583.47
2023-02-23T13:59:10.191Z,100575.66
2023-02-23T14:04:14.076Z,100580.00
2023-02-23T14:09:21.945Z,100578.28
2023-02-23T14:14:42.293Z,100582.63
2023-02-23T14:19:44.912Z,100584.41
2023-02-23T14:24:47.925Z,100581.75
2023-02-23T14:30:17.142Z,100587.84
2023-02-23T14:35:44.242Z,100593.94
2023-02-23T14:40:48.815Z,100589.53
2023-02-23T14:45:51.108Z,100590.41
2023-02-23T14:51:27.532Z,100592.13
2023-02-23T14:56:43.542Z,100591.19
2023-02-23T15:01:45.733Z,100598.97
2023-02-23T15:06:47.445Z,100595.53
2023-02-23T15:11:53.909Z,100593.78
2023-02-23T15:16:55.954Z,100594.66
2023-02-23T15:21:58.793Z,100593.75
2023-02-23T15:27:01.972Z,100598.06
2023-02-23T15:32:17.117Z,100596.28
2023-02-23T15:37:23.770Z,100589.34
2023-02-23T15:42:31.066Z,100592.84
2023-02-23T15:47:33.843Z,100598.94
2023-02-23T15:52:36.704Z,100598.91
2023-02-23T15:57:47.133Z,100593.69
2023-02-23T16:02:48.982Z,100589.34
2023-02-23T16:08:01.616Z,100589.34
2023-02-23T16:13:04.981Z,100588.41
2023-02-23T16:18:10.468Z,100585.78
2023-02-23T16:23:17.720Z,100584.00
2023-02-23T16:28:23.079Z,100582.25
2023-02-23T16:33:25.530Z,100579.63
2023-02-23T16:38:28.277Z,100578.75
2023-02-23T16:43:35.154Z,100582.25
2023-02-23T16:48:36.960Z,100582.22
2023-02-23T16:53:40.555Z,100592.63
2023-02-23T16:58:45.785Z,100582.19
2023-02-23T17:03:52.856Z,100591.72
2023-02-23T17:08:58.268Z,100598.63
2023-02-23T17:14:01.642Z,100602.16
2023-02-23T17:19:03.370Z,100597.81
2023-02-23T17:24:05.566Z,100606.44
2023-02-23T17:29:08.624Z,100607.31
2023-02-23T17:34:10.308Z,100608.13
2023-02-23T17:39:14.161Z,100618.47
2023-02-23T17:44:17.233Z,100619.09
2023-02-23T17:49:19.052Z,100634.56
2023-02-23T17:54:20.806Z,100636.97
2023-02-23T17:59:23.928Z,100636.91
2023-02-23T18:04:25.849Z,100643.00
2023-02-23T18:09:28.098Z,100636.88
2023-02-23T18:14:31.180Z,100644.66
2023-02-23T18:19:32.902Z,100638.53
2023-02-23T18:24:34.606Z,100628.94
2023-02-23T18:29:37.690Z,100623.72
2023-02-23T18:34:39.363Z,100628.94
2023-02-23T18:39:41.092Z,100632.31
2023-02-23T18:44:44.655Z,100627.19
2023-02-23T18:49:46.377Z,100630.03
2023-02-23T18:54:48.165Z,100623.94
2023-02-23T18:59:51.270Z,100628.28
2023-02-23T19:04:53.202Z,100632.47
2023-02-23T19:09:55.077Z,100638.56
2023-02-23T19:14:58.440Z,100635.06
2023-02-23T19:20:00.661Z,100632.47
2023-02-23T19:25:02.515Z,100622.00
2023-02-23T19:30:09.837Z,100624.59
2023-02-23T19:35:14.530Z,100621.34
2023-02-23T19:40:19.439Z,100616.16
2023-02-23T19:45:25.885Z,100621.28
2023-02-23T19:50:27.792Z,100613.47
2023-02-23T19:55:29.687Z,100615.94
2023-02-23T20:00:32.774Z,100618.50
2023-02-23T20:05:42.367Z,100625.47
2023-02-23T20:10:45.238Z,100635.56
2023-02-23T20:15:48.240Z,100632.91
2023-02-23T20:20:49.956Z,100631.84
2023-02-23T20:25:51.696Z,100634.31
2023-02-23T20:30:54.776Z,100641.00
2023-02-23T20:35:56.693Z,100642.59
2023-02-23T20:40:58.717Z,100652.81
2023-02-23T20:46:02.730Z,100649.19
2023-02-23T20:51:08.380Z,100651.53
2023-02-23T20:56:10.215Z,100660.19
2023-02-23T21:01:23.114Z,100659.09
2023-02-23T21:06:25.969Z,100652.06
2023-02-23T21:11:27.722Z,100653.66
2023-02-23T21:16:32.389Z,100644.06
2023-02-23T21:21:38.179Z,100649.09
2023-02-23T21:26:39.907Z,100651.34
2023-02-23T21:31:43.342Z,100647.75
2023-02-23T21:36:45.116Z,100659.75
2023-02-23T21:41:46.817Z,100647.53
2023-02-23T21:46:51.516Z,100648.34
2023-02-23T21:51:55.069Z,100648.16
2023-02-23T21:56:56.826Z,100649.63
2023-02-23T22:01:59.962Z,100646.88
2023-02-23T22:07:02.207Z,100648.63
2023-02-23T22:12:04.631Z,100645.72
2023-02-23T22:17:09.662Z,100653.06
2023-02-23T22:22:11.537Z,100647.59
2023-02-23T22:27:13.869Z,100646.63
2023-02-23T22:32:17.707Z,100650.00
2023-02-23T22:37:21.850Z,100642.22
2023-02-23T22:42:24.450Z,100638.06
2023-02-23T22:47:27.534Z,100628.72
2023-02-23T22:52:30.028Z,100633.22
2023-02-23T22:57:31.774Z,100635.13
2023-02-23T23:02:36.197Z,100636.84
2023-02-23T23:07:37.947Z,100630.75
2023-02-23T23:12:40.325Z,100626.31
2023-02-23T23:17:48.487Z,100623.03
2023-02-23T23:22:50.305Z,100620.28
2023-02-23T23:27:52.482Z,100618.22
2023-02-23T23:32:55.770Z,100612.75
2023-02-23T23:37:57.575Z,100597.06
2023-02-23T23:43:01.945Z,100589.13
2023-02-23T23:48:09.406Z,100585.50
2023-02-23T23:53:11.161Z,100579.44
2023-02-23T23:58:13.930Z,100580.06
